Search for airport 
image banner adimage banner adimage banner ad
image banner ad

5CA7 - Agro-West

Located in Five Points, United States

ICAO - 5CA7, IATA -

Data provided by Airmate  

General information

Coordinates: N36°20'10" W120°14'51"
Elevation is 335 feet MSL.
Magnetic variation is 15° East
View others Airports in California

Operational data

Special qualification required
Current time UTC:
Current local time:
Weather at : KNLC - Lemoore Nas (Reeves Fld) ( 26 km )
METAR: KNLC 212256Z 04004KT 8SM SCT034 BKN140 33/09 A3002 RMK AO2 SLP165 FU SCT034 BKN140 RH/21 T03330089
TAF: TAF KNLC 2123/2223 VRB06KT 8000 HZ FU SCT034 BKN140 QNH2995INS TEMPO 2200/2206 33008KT 4800 HZ FU BKN034 BKN100 FM220600 28007KT 8000 HZ FU SCT034 BKN080 BKN100 QNH2996INS T15/2214Z T37/2223Z FS30012
View NOTAMs / SUP AIP / TFR affecting this airport [VIEW]
Communications frequencies: [VIEW]

Runways:

RWY identifierQFULength (ft)Width (ft)SurfaceLDA (ft)
16300040ASPH
34300040ASPH

Airport contact information

Address: Five Points United States

Satellite view of 5CA7